Time;durP1;ratioP1;P1;durP2;ratioP2;P2;SDS_P1;SDS_P2;PMS_P1;PMS_P2;Temp;Humidity;BMP_temperature;BMP_pressure;BME280_temperature;BME280_humidity;BME280_pressure;Samples;Min_cycle;Max_cycle;Signal;HPM_P1;HPM_P2
2023/09/04 00:00:00;;;;;;;;;;;;;;;26.04;41.63;98678.22;5031561;28;19912;-74
2023/09/04 00:02:26;;;;;;;;;;;;;;;26.02;41.66;98682.16;5031545;28;19967;-74
2023/09/04 00:04:52;;;;;;;;;;;;;;;25.99;41.45;98681.53;5033179;28;19986;-74
2023/09/04 00:07:17;;;;;;;;;;;;;;;25.98;41.61;98687.13;5031595;28;19913;-74
2023/09/04 00:09:43;;;;;;;;;;;;;;;25.97;41.80;98682.81;5014929;28;19920;-74
2023/09/04 00:12:08;;;;;;;;;;;;;;;25.99;41.72;98686.91;5032693;28;20281;-74
2023/09/04 00:14:33;;;;;;;;;;;;;;;25.98;41.53;98682.59;5015040;28;19987;-73
2023/09/04 00:16:59;;;;;;;;;;;;;;;26.01;41.61;98675.97;5014594;28;19920;-74
2023/09/04 00:19:24;;;;;;;;;;;;;;;26.04;41.19;98669.38;5032711;28;19913;-79
2023/09/04 00:21:49;;;;;;;;;;;;;;;26.07;41.33;98675.09;5014775;28;20012;-79
2023/09/04 00:24:15;;;;;;;;;;;;;;;26.10;41.34;98676.53;5032418;28;19913;-79
2023/09/04 00:26:40;;;;;;;;;;;;;;;26.10;41.15;98679.22;5032360;28;19952;-79
2023/09/04 00:29:05;;;;;;;;;;;;;;;26.08;41.37;98682.09;5015141;28;19913;-78
2023/09/04 00:31:30;;;;;;;;;;;;;;;26.07;41.59;98680.47;5032600;28;20376;-78
2023/09/04 00:33:56;;;;;;;;;;;;;;;26.05;40.79;98682.53;5032042;28;19917;-78
2023/09/04 00:36:21;;;;;;;;;;;;;;;26.05;40.70;98679.88;5018813;28;19951;-78
2023/09/04 00:38:46;;;;;;;;;;;;;;;26.08;40.39;98673.28;5036416;28;19916;-78
2023/09/04 00:41:12;;;;;;;;;;;;;;;26.10;39.76;98674.66;5036248;28;20331;-78
2023/09/04 00:43:37;;;;;;;;;;;;;;;26.03;39.72;98665.06;5018949;28;19909;-78
2023/09/04 00:46:03;;;;;;;;;;;;;;;26.00;39.43;98666.34;5036909;28;19944;-78
2023/09/04 00:48:28;;;;;;;;;;;;;;;26.00;39.04;98659.13;5035368;28;19913;-78
2023/09/04 00:50:54;;;;;;;;;;;;;;;26.00;39.29;98655.66;5036586;28;20292;-78
2023/09/04 00:53:19;;;;;;;;;;;;;;;26.04;38.81;98650.66;5036081;28;19913;-78
2023/09/04 00:55:44;;;;;;;;;;;;;;;26.01;39.20;98651.91;5036338;28;20334;-78
2023/09/04 00:58:09;;;;;;;;;;;;;;;26.00;39.22;98653.78;5034817;28;19913;-78
2023/09/04 01:00:35;;;;;;;;;;;;;;;26.01;38.96;98643.88;5034732;28;19913;-79
2023/09/04 01:03:02;;;;;;;;;;;;;;;25.98;39.43;98647.00;5018206;28;19947;-79
2023/09/04 01:05:30;;;;;;;;;;;;;;;25.96;39.33;98638.34;5035915;28;20320;-78
2023/09/04 01:07:55;;;;;;;;;;;;;;;25.98;39.50;98634.47;5036212;28;19952;-79
2023/09/04 01:10:21;;;;;;;;;;;;;;;25.94;39.63;98635.91;5035906;28;20312;-79
2023/09/04 01:12:59;;;;;;;;;;;;;;;25.86;39.63;98632.69;5034768;28;20371;-73
2023/09/04 01:15:24;;;;;;;;;;;;;;;25.86;39.81;98617.47;5033680;28;19917;-73
2023/09/04 01:17:49;;;;;;;;;;;;;;;25.88;39.85;98626.06;5034023;28;19913;-73
2023/09/04 01:20:23;;;;;;;;;;;;;;;25.91;39.91;98619.47;5017024;28;19913;-73
2023/09/04 01:22:48;;;;;;;;;;;;;;;25.84;39.78;98624.91;5033873;28;19913;-75
2023/09/04 01:25:15;;;;;;;;;;;;;;;25.83;39.62;98626.72;5033164;28;19920;-75
2023/09/04 01:27:41;;;;;;;;;;;;;;;25.82;40.10;98621.59;5034151;28;20055;-74
2023/09/04 01:30:09;;;;;;;;;;;;;;;25.78;39.81;98623.09;5033434;28;19913;-74
2023/09/04 01:32:36;;;;;;;;;;;;;;;25.75;40.03;98624.34;5033810;28;19996;-73
2023/09/04 01:35:03;;;;;;;;;;;;;;;25.76;40.06;98617.97;5016483;28;19932;-72
2023/09/04 01:37:29;;;;;;;;;;;;;;;25.72;40.23;98616.75;5033286;28;19967;-72
2023/09/04 01:39:54;;;;;;;;;;;;;;;25.69;40.05;98617.19;5033296;28;20348;-72
2023/09/04 01:42:19;;;;;;;;;;;;;;;25.67;40.52;98605.91;5033656;28;19948;-72
2023/09/04 01:44:45;;;;;;;;;;;;;;;25.67;40.40;98605.91;5032492;28;20334;-72
2023/09/04 01:47:10;;;;;;;;;;;;;;;25.65;40.41;98605.31;5034197;28;19913;-72
2023/09/04 01:49:35;;;;;;;;;;;;;;;25.48;40.72;98601.53;5033002;28;20012;-73
2023/09/04 01:52:01;;;;;;;;;;;;;;;25.43;40.57;98594.19;5032997;28;19913;-73
2023/09/04 01:54:26;;;;;;;;;;;;;;;25.39;40.75;98593.78;5033133;28;19917;-73
2023/09/04 01:56:52;;;;;;;;;;;;;;;25.42;40.58;98590.66;5034605;28;19924;-73
2023/09/04 01:59:17;;;;;;;;;;;;;;;25.35;41.07;98592.59;5033126;28;19913;-73
2023/09/04 02:01:42;;;;;;;;;;;;;;;25.35;40.95;98584.56;5033978;28;19970;-73
2023/09/04 02:04:07;;;;;;;;;;;;;;;25.34;40.89;98574.09;5034673;28;19963;-73
2023/09/04 02:06:33;;;;;;;;;;;;;;;25.33;40.88;98575.13;5033875;28;19913;-73
2023/09/04 02:08:58;;;;;;;;;;;;;;;25.22;41.25;98566.75;5032806;28;19968;-73
2023/09/04 02:11:23;;;;;;;;;;;;;;;25.13;41.63;98565.38;5016187;28;19913;-73
2023/09/04 02:13:49;;;;;;;;;;;;;;;25.07;41.57;98561.69;5032907;28;19927;-73
2023/09/04 02:16:14;;;;;;;;;;;;;;;25.03;41.84;98562.34;5034015;28;19920;-72
2023/09/04 02:18:40;;;;;;;;;;;;;;;25.04;41.85;98556.78;5033701;28;19917;-72
2023/09/04 02:21:05;;;;;;;;;;;;;;;24.99;41.92;98555.81;5016793;28;19913;-74
2023/09/04 02:23:30;;;;;;;;;;;;;;;25.02;41.90;98563.41;5032634;28;20011;-73
2023/09/04 02:25:56;;;;;;;;;;;;;;;25.05;41.75;98558.44;5033259;28;19913;-73
2023/09/04 02:28:21;;;;;;;;;;;;;;;25.06;41.54;98554.75;5032818;28;20358;-72
2023/09/04 02:30:46;;;;;;;;;;;;;;;25.11;41.58;98556.75;5033264;28;19967;-72
2023/09/04 02:33:12;;;;;;;;;;;;;;;24.98;41.63;98557.66;5034340;28;19924;-72
2023/09/04 02:35:37;;;;;;;;;;;;;;;24.93;41.70;98562.81;5032944;28;19924;-72
2023/09/04 02:38:02;;;;;;;;;;;;;;;24.85;41.66;98563.06;5034208;28;20015;-72
2023/09/04 02:40:28;;;;;;;;;;;;;;;24.90;41.28;98550.69;5034083;28;19964;-72
2023/09/04 02:42:53;;;;;;;;;;;;;;;24.79;41.02;98558.59;5032867;28;20387;-72
2023/09/04 02:45:18;;;;;;;;;;;;;;;24.63;41.33;98552.69;5032659;28;19913;-73
2023/09/04 02:47:43;;;;;;;;;;;;;;;24.64;41.46;98549.00;5034234;28;19963;-73
2023/09/04 02:50:09;;;;;;;;;;;;;;;24.63;41.56;98544.69;5032854;28;19989;-72
2023/09/04 02:52:34;;;;;;;;;;;;;;;24.61;41.91;98551.28;5033037;28;19913;-72
2023/09/04 02:55:00;;;;;;;;;;;;;;;24.65;41.71;98561.31;5032708;28;20296;-72
2023/09/04 02:57:26;;;;;;;;;;;;;;;24.67;42.06;98553.09;5032719;28;19913;-73
2023/09/04 02:59:51;;;;;;;;;;;;;;;24.64;42.07;98553.53;5032827;28;20415;-72
2023/09/04 03:02:17;;;;;;;;;;;;;;;24.52;42.30;98548.00;5032155;28;19920;-72
2023/09/04 03:04:42;;;;;;;;;;;;;;;24.50;42.51;98556.22;5015861;28;19960;-73
2023/09/04 03:07:07;;;;;;;;;;;;;;;24.53;42.60;98557.66;5032494;28;19919;-72
2023/09/04 03:09:32;;;;;;;;;;;;;;;24.53;42.98;98547.78;5033697;28;19935;-73
2023/09/04 03:11:58;;;;;;;;;;;;;;;24.51;43.32;98541.88;5031931;28;20400;-72
2023/09/04 03:14:23;;;;;;;;;;;;;;;24.54;43.87;98544.09;5032436;28;20277;-73
2023/09/04 03:16:49;;;;;;;;;;;;;;;24.46;44.19;98538.19;5033576;28;20023;-73
2023/09/04 03:19:14;;;;;;;;;;;;;;;24.45;44.49;98552.53;5033387;28;20380;-73
2023/09/04 03:21:39;;;;;;;;;;;;;;;24.34;44.95;98565.53;5031751;28;20348;-73
2023/09/04 03:24:05;;;;;;;;;;;;;;;24.22;45.23;98561.06;5031461;28;19924;-73
2023/09/04 03:26:30;;;;;;;;;;;;;;;24.23;45.00;98565.34;5014938;28;19913;-76
2023/09/04 03:28:56;;;;;;;;;;;;;;;24.67;44.40;98569.09;5032186;28;19913;-81
2023/09/04 03:31:21;;;;;;;;;;;;;;;25.07;43.39;98572.38;5015326;28;19921;-82
2023/09/04 03:33:46;;;;;;;;;;;;;;;25.40;42.98;98578.56;5031594;28;19966;-82
2023/09/04 03:36:11;;;;;;;;;;;;;;;25.63;42.86;98569.94;5015711;28;20354;-79
2023/09/04 03:38:38;;;;;;;;;;;;;;;25.87;42.29;98579.00;5032879;28;20388;-79
2023/09/04 03:41:03;;;;;;;;;;;;;;;26.10;42.15;98588.28;5033309;28;19948;-78
2023/09/04 03:43:29;;;;;;;;;;;;;;;26.25;42.01;98595.91;5031885;28;20319;-84
2023/09/04 03:45:54;;;;;;;;;;;;;;;26.35;42.26;98594.38;5031754;28;19918;-86
2023/09/04 03:48:19;;;;;;;;;;;;;;;26.44;42.57;98600.25;5033437;28;20273;-82
2023/09/04 03:50:45;;;;;;;;;;;;;;;26.47;42.47;98607.84;5032022;28;20003;-83
2023/09/04 03:53:10;;;;;;;;;;;;;;;26.52;42.11;98605.31;5032451;28;19923;-82
2023/09/04 03:55:36;;;;;;;;;;;;;;;26.55;42.84;98606.69;5032922;28;19972;-84
2023/09/04 03:58:03;;;;;;;;;;;;;;;26.57;42.42;98599.28;5036700;28;19948;-84
2023/09/04 04:00:30;;;;;;;;;;;;;;;26.59;42.40;98597.19;5035841;28;19917;-83
2023/09/04 04:02:55;;;;;;;;;;;;;;;26.62;42.48;98602.09;5032160;28;19917;-78
2023/09/04 04:05:20;;;;;;;;;;;;;;;26.63;42.48;98592.19;5033039;28;19966;-86
2023/09/04 04:07:45;;;;;;;;;;;;;;;26.65;41.99;98585.59;5033115;28;20372;-86
2023/09/04 04:10:11;;;;;;;;;;;;;;;26.65;41.77;98582.13;5030986;28;19920;-82
2023/09/04 04:12:36;;;;;;;;;;;;;;;26.67;41.73;98580.03;5031029;28;19913;-78
2023/09/04 04:15:05;;;;;;;;;;;;;;;26.70;42.21;98579.59;5033130;28;19917;-82
2023/09/04 04:17:30;;;;;;;;;;;;;;;26.69;41.92;98583.28;5022690;28;19918;-78
2023/09/04 04:19:56;;;;;;;;;;;;;;;26.70;41.81;98569.69;4994878;28;19914;-81
2023/09/04 04:22:22;;;;;;;;;;;;;;;26.72;41.78;98577.47;5010757;28;20127;-78
2023/09/04 04:24:47;;;;;;;;;;;;;;;26.73;41.50;98584.47;5010937;28;19914;-78
2023/09/04 04:27:12;;;;;;;;;;;;;;;26.76;41.61;98580.53;4993774;28;19967;-79
2023/09/04 04:29:38;;;;;;;;;;;;;;;26.73;41.54;98576.44;5010382;28;19913;-78
2023/09/04 04:32:04;;;;;;;;;;;;;;;26.73;41.56;98575.66;5012008;28;19921;-77
2023/09/04 04:34:29;;;;;;;;;;;;;;;26.72;41.82;98574.81;5010844;28;19997;-78
2023/09/04 04:36:55;;;;;;;;;;;;;;;26.71;41.46;98579.34;5010827;28;19925;-78
2023/09/04 04:39:20;;;;;;;;;;;;;;;26.70;41.51;98582.25;4995738;28;20300;-78
2023/09/04 04:41:46;;;;;;;;;;;;;;;26.70;41.43;98583.06;5031792;28;19913;-79
2023/09/04 04:44:11;;;;;;;;;;;;;;;26.70;41.33;98574.22;5031855;28;19924;-78
2023/09/04 04:46:36;;;;;;;;;;;;;;;26.70;41.66;98587.63;5015669;28;20249;-78
2023/09/04 04:49:02;;;;;;;;;;;;;;;26.70;41.49;98590.28;5031266;28;20298;-77
2023/09/04 04:51:27;;;;;;;;;;;;;;;26.70;41.56;98599.13;5014446;28;19967;-77
2023/09/04 04:53:52;;;;;;;;;;;;;;;26.68;41.64;98597.75;5031146;28;19962;-77
2023/09/04 04:56:18;;;;;;;;;;;;;;;26.68;41.28;98605.78;5032736;28;19920;-77
2023/09/04 04:58:43;;;;;;;;;;;;;;;26.68;41.30;98617.28;5014773;28;19967;-77
2023/09/04 05:01:08;;;;;;;;;;;;;;;26.68;41.71;98628.00;5031242;28;19920;-79
2023/09/04 05:03:34;;;;;;;;;;;;;;;26.68;41.23;98635.22;5032839;28;19920;-78
2023/09/04 05:05:59;;;;;;;;;;;;;;;26.68;41.40;98643.25;5030963;28;19913;-77
2023/09/04 05:08:24;;;;;;;;;;;;;;;26.66;41.55;98642.63;5031114;28;19913;-78
2023/09/04 05:11:05;;;;;;;;;;;;;;;26.64;41.29;98648.19;5032809;28;19913;-78
2023/09/04 05:13:30;;;;;;;;;;;;;;;26.61;41.29;98653.97;5031418;28;19963;-77
2023/09/04 05:15:56;;;;;;;;;;;;;;;26.57;41.56;98655.47;5014211;28;19960;-78
2023/09/04 05:18:21;;;;;;;;;;;;;;;26.55;41.36;98660.22;5031014;28;20290;-78
2023/09/04 05:20:47;;;;;;;;;;;;;;;26.52;41.57;98664.19;5015306;28;19966;-79
2023/09/04 05:23:12;;;;;;;;;;;;;;;26.52;41.32;98658.03;5034449;28;20019;-78
2023/09/04 05:25:46;;;;;;;;;;;;;;;26.51;41.68;98654.50;5034577;28;19919;-77
2023/09/04 05:28:11;;;;;;;;;;;;;;;26.52;41.27;98655.34;5035064;28;20387;-77
2023/09/04 05:30:37;;;;;;;;;;;;;;;26.54;41.15;98655.94;5018082;28;19920;-79
2023/09/04 05:33:02;;;;;;;;;;;;;;;26.56;41.65;98656.53;5032535;28;19921;-80
2023/09/04 05:35:27;;;;;;;;;;;;;;;26.65;41.71;98654.41;5001661;28;19924;-81
2023/09/04 05:37:53;;;;;;;;;;;;;;;26.74;41.29;98657.59;5017568;28;19924;-80
2023/09/04 05:40:18;;;;;;;;;;;;;;;26.84;41.48;98642.63;5035923;28;19913;-81
2023/09/04 05:42:43;;;;;;;;;;;;;;;26.93;41.15;98642.31;5002475;28;19971;-81
2023/09/04 05:45:09;;;;;;;;;;;;;;;27.00;40.89;98649.22;5034260;28;20280;-81
2023/09/04 05:47:34;;;;;;;;;;;;;;;27.08;40.75;98648.09;5017330;28;19920;-82
2023/09/04 05:50:00;;;;;;;;;;;;;;;27.14;40.83;98655.22;5035436;28;20372;-80
2023/09/04 05:52:26;;;;;;;;;;;;;;;27.20;40.86;98645.44;5001585;28;19913;-81
2023/09/04 05:54:51;;;;;;;;;;;;;;;27.24;41.76;98652.81;5017737;28;19967;-83
2023/09/04 05:57:17;;;;;;;;;;;;;;;27.27;41.47;98649.66;5018652;28;19919;-84
2023/09/04 05:59:43;;;;;;;;;;;;;;;27.27;41.49;98649.66;5034582;28;20016;-77
2023/09/04 06:02:09;;;;;;;;;;;;;;;27.26;41.37;98644.53;5020044;28;19916;-77
2023/09/04 06:04:34;;;;;;;;;;;;;;;27.24;41.31;98647.44;5037386;28;19920;-74
2023/09/04 06:07:03;;;;;;;;;;;;;;;27.29;41.40;98640.59;5033671;28;20261;-76
2023/09/04 06:09:28;;;;;;;;;;;;;;;27.31;41.59;98646.56;5001128;28;19920;-75
2023/09/04 06:11:54;;;;;;;;;;;;;;;27.32;41.66;98642.84;5034895;28;19913;-74
2023/09/04 06:14:19;;;;;;;;;;;;;;;27.32;41.76;98645.53;5016970;28;20319;-77
2023/09/04 06:16:44;;;;;;;;;;;;;;;27.33;41.69;98644.50;5016887;28;19920;-75
2023/09/04 06:19:10;;;;;;;;;;;;;;;27.35;41.76;98645.06;5017224;28;19996;-75
2023/09/04 06:21:35;;;;;;;;;;;;;;;27.35;41.38;98648.56;5017384;28;20384;-74
2023/09/04 06:24:00;;;;;;;;;;;;;;;27.37;41.68;98651.03;5034292;28;20347;-75
2023/09/04 06:26:25;;;;;;;;;;;;;;;27.40;41.36;98648.69;5034559;28;19947;-76
2023/09/04 06:28:51;;;;;;;;;;;;;;;27.44;41.14;98646.41;5033427;28;19917;-81
2023/09/04 06:31:16;;;;;;;;;;;;;;;27.46;41.05;98644.28;5016282;28;19913;-77
2023/09/04 06:33:43;;;;;;;;;;;;;;;27.48;41.64;98644.06;5016671;28;20029;-77
2023/09/04 06:36:09;;;;;;;;;;;;;;;27.48;41.68;98644.06;5034858;28;19924;-76
2023/09/04 06:38:34;;;;;;;;;;;;;;;27.48;41.76;98642.19;5016738;28;19913;-73
2023/09/04 06:40:59;;;;;;;;;;;;;;;27.49;42.11;98648.38;5033282;28;20304;-73
2023/09/04 06:43:25;;;;;;;;;;;;;;;27.40;42.19;98653.25;5035209;28;19959;-81
2023/09/04 06:45:50;;;;;;;;;;;;;;;27.23;41.94;98650.34;5017251;28;19963;-78
2023/09/04 06:48:16;;;;;;;;;;;;;;;27.14;42.26;98649.88;5023131;28;19935;-90
2023/09/04 06:50:41;;;;;;;;;;;;;;;27.04;42.39;98650.41;5044914;28;20304;-90
2023/09/04 06:53:06;;;;;;;;;;;;;;;26.98;42.53;98667.38;5033412;28;19913;-88
2023/09/04 06:55:35;;;;;;;;;;;;;;;26.88;42.37;98667.94;5038074;28;19963;-92
2023/09/04 06:58:00;;;;;;;;;;;;;;;26.80;42.95;98668.22;5055365;28;19971;-91
2023/09/04 07:00:26;;;;;;;;;;;;;;;26.74;43.06;98670.97;5030357;28;19913;-90
2023/09/04 07:02:51;;;;;;;;;;;;;;;26.68;43.27;98670.81;5050586;28;19987;-90
2023/09/04 07:05:17;;;;;;;;;;;;;;;26.66;42.95;98667.56;5032544;28;20348;-92
2023/09/04 07:07:42;;;;;;;;;;;;;;;26.65;43.22;98678.50;5046702;28;19917;-91
2023/09/04 07:10:08;;;;;;;;;;;;;;;26.62;43.58;98668.22;5013560;28;19913;-90
2023/09/04 07:12:36;;;;;;;;;;;;;;;26.56;43.63;98674.44;5047581;28;19971;-89
2023/09/04 07:15:02;;;;;;;;;;;;;;;26.53;43.90;98684.56;5044087;28;19920;-91
2023/09/04 07:17:27;;;;;;;;;;;;;;;26.45;43.72;98686.69;5046676;28;19973;-89
2023/09/04 07:19:52;;;;;;;;;;;;;;;26.38;44.01;98677.91;5042439;28;19917;-90
2023/09/04 07:22:18;;;;;;;;;;;;;;;26.34;44.01;98682.88;5040734;28;20360;-88
2023/09/04 07:24:43;;;;;;;;;;;;;;;26.32;43.69;98679.63;5041108;28;19995;-89
2023/09/04 07:27:10;;;;;;;;;;;;;;;26.30;44.10;98681.72;5024670;28;19913;-90
2023/09/04 07:29:35;;;;;;;;;;;;;;;26.29;43.88;98680.06;5039036;28;19936;-89
2023/09/04 07:32:01;;;;;;;;;;;;;;;26.27;44.24;98674.13;5038806;28;19913;-89
2023/09/04 07:34:26;;;;;;;;;;;;;;;26.21;44.46;98675.81;5037699;28;19917;-91
2023/09/04 07:36:52;;;;;;;;;;;;;;;26.17;44.71;98686.13;5038655;28;19949;-88
2023/09/04 07:39:17;;;;;;;;;;;;;;;26.11;44.35;98692.38;5038843;28;19913;-89
2023/09/04 07:41:42;;;;;;;;;;;;;;;26.04;44.68;98694.25;5005875;28;19913;-89
2023/09/04 07:44:08;;;;;;;;;;;;;;;25.99;44.67;98696.78;5021247;28;19913;-89
2023/09/04 07:46:33;;;;;;;;;;;;;;;25.93;44.69;98697.63;5024439;28;19917;-90
2023/09/04 07:48:58;;;;;;;;;;;;;;;25.87;44.85;98693.13;5037406;28;19913;-88
2023/09/04 07:51:24;;;;;;;;;;;;;;;25.82;45.11;98699.97;5039367;28;19935;-90
2023/09/04 07:53:49;;;;;;;;;;;;;;;25.78;45.33;98703.28;5038561;28;19912;-91
2023/09/04 07:56:15;;;;;;;;;;;;;;;25.73;45.25;98711.97;5039038;28;19913;-90
2023/09/04 07:58:40;;;;;;;;;;;;;;;25.68;45.60;98711.81;5006850;28;19913;-89
2023/09/04 08:01:09;;;;;;;;;;;;;;;25.65;45.55;98712.22;5025722;28;19917;-89
2023/09/04 08:03:35;;;;;;;;;;;;;;;25.62;45.27;98715.34;5025251;28;19913;-90
2023/09/04 08:06:00;;;;;;;;;;;;;;;25.60;45.38;98715.53;5043308;28;19913;-89
2023/09/04 08:08:25;;;;;;;;;;;;;;;25.58;45.54;98725.59;5017786;28;19917;-89
2023/09/04 08:10:51;;;;;;;;;;;;;;;25.53;45.54;98725.44;5048551;28;20020;-89
2023/09/04 08:13:20;;;;;;;;;;;;;;;25.55;45.53;98727.91;5052440;28;19957;-89
2023/09/04 08:15:45;;;;;;;;;;;;;;;25.51;45.56;98724.84;5050597;28;19901;-89
2023/09/04 08:18:10;;;;;;;;;;;;;;;25.49;45.41;98731.44;5045448;28;20011;-89
2023/09/04 08:20:36;;;;;;;;;;;;;;;25.48;45.61;98729.81;5046844;28;20289;-90
2023/09/04 08:23:01;;;;;;;;;;;;;;;25.48;45.57;98740.50;5046918;28;20004;-92
2023/09/04 08:25:27;;;;;;;;;;;;;;;25.43;45.68;98743.81;5031817;28;20343;-91
2023/09/04 08:27:52;;;;;;;;;;;;;;;25.39;45.52;98747.94;5048481;28;19917;-90
2023/09/04 08:30:17;;;;;;;;;;;;;;;25.35;45.72;98758.22;5049830;28;19943;-91
2023/09/04 08:32:44;;;;;;;;;;;;;;;25.33;45.98;98762.13;5031671;28;19919;-89
2023/09/04 08:35:10;;;;;;;;;;;;;;;25.32;45.84;98765.81;5047983;28;19917;-91
2023/09/04 08:37:35;;;;;;;;;;;;;;;25.31;45.86;98766.88;5050221;28;19975;-90
2023/09/04 08:40:01;;;;;;;;;;;;;;;25.29;45.95;98767.09;5033100;28;19920;-91
2023/09/04 08:42:27;;;;;;;;;;;;;;;25.26;46.11;98770.16;5048354;28;20448;-91
2023/09/04 08:44:52;;;;;;;;;;;;;;;25.24;46.33;98769.56;5032803;28;19967;-91
2023/09/04 08:47:19;;;;;;;;;;;;;;;25.21;46.46;98773.44;5032185;28;19913;-88
2023/09/04 08:49:44;;;;;;;;;;;;;;;25.20;46.57;98774.47;5050214;28;19920;-92
2023/09/04 08:52:10;;;;;;;;;;;;;;;25.20;46.73;98773.66;5013878;28;19949;-92
2023/09/04 08:54:35;;;;;;;;;;;;;;;25.20;46.79;98779.81;5034919;28;19917;-90
2023/09/04 08:57:00;;;;;;;;;;;;;;;25.23;46.91;98775.91;5036357;28;20008;-90
2023/09/04 08:59:26;;;;;;;;;;;;;;;25.23;46.89;98781.25;5047098;28;19921;-90
2023/09/04 09:01:54;;;;;;;;;;;;;;;25.25;46.83;98773.84;5029418;28;19972;-91
2023/09/04 09:04:20;;;;;;;;;;;;;;;25.25;47.28;98768.50;5052078;28;19976;-91
2023/09/04 09:06:47;;;;;;;;;;;;;;;25.27;47.02;98761.91;5047422;28;19913;-90
2023/09/04 09:09:12;;;;;;;;;;;;;;;25.30;47.27;98752.69;5046453;28;19916;-88
2023/09/04 09:11:39;;;;;;;;;;;;;;;25.34;47.18;98750.44;5040600;28;19913;-89
2023/09/04 09:14:04;;;;;;;;;;;;;;;25.38;47.38;98751.63;5045922;28;19913;-91
2023/09/04 09:16:29;;;;;;;;;;;;;;;25.40;47.40;98747.72;5047756;28;19920;-92
2023/09/04 09:18:55;;;;;;;;;;;;;;;25.46;47.30;98738.03;5013355;28;19917;-91
2023/09/04 09:21:21;;;;;;;;;;;;;;;25.49;47.21;98736.78;5047224;28;19913;-91
2023/09/04 09:23:46;;;;;;;;;;;;;;;25.53;47.16;98727.31;5034773;28;19913;-91
2023/09/04 09:26:11;;;;;;;;;;;;;;;25.58;46.79;98719.47;5032478;28;20011;-89
2023/09/04 09:28:37;;;;;;;;;;;;;;;25.61;46.89;98714.50;5029605;28;20000;-91
2023/09/04 09:31:02;;;;;;;;;;;;;;;25.66;46.71;98713.84;5050372;28;20376;-90
2023/09/04 09:33:28;;;;;;;;;;;;;;;25.70;46.75;98708.91;5047970;28;19939;-91
2023/09/04 09:35:54;;;;;;;;;;;;;;;25.76;46.49;98708.03;5050034;28;20443;-91
2023/09/04 09:38:19;;;;;;;;;;;;;;;25.85;46.46;98704.06;5050657;28;19916;-91
2023/09/04 09:40:45;;;;;;;;;;;;;;;25.98;46.09;98701.31;5052331;28;19952;-90
2023/09/04 09:43:10;;;;;;;;;;;;;;;26.17;45.82;98691.50;5054621;28;19924;-92
2023/09/04 09:45:35;;;;;;;;;;;;;;;26.38;45.83;98685.94;5051197;28;19913;-90
2023/09/04 09:48:04;;;;;;;;;;;;;;;26.59;45.44;98687.38;5032996;28;19939;-90
2023/09/04 09:50:30;;;;;;;;;;;;;;;26.78;44.92;98694.41;5030922;28;19920;-92
2023/09/04 09:52:55;;;;;;;;;;;;;;;26.96;44.33;98682.84;5046702;28;19913;-90
2023/09/04 09:55:24;;;;;;;;;;;;;;;27.10;44.40;98694.22;5046343;28;19913;-90
2023/09/04 09:57:49;;;;;;;;;;;;;;;27.18;44.05;98685.06;5045269;28;19917;-90
2023/09/04 10:00:15;;;;;;;;;;;;;;;27.21;44.27;98688.09;5027318;28;19920;-91
2023/09/04 10:02:41;;;;;;;;;;;;;;;27.22;44.21;98688.94;5045093;28;19998;-89
2023/09/04 10:05:09;;;;;;;;;;;;;;;27.19;43.81;98690.19;5029245;28;19913;-91
2023/09/04 10:07:35;;;;;;;;;;;;;;;27.17;44.16;98694.16;5042111;28;19959;-88
2023/09/04 10:10:05;;;;;;;;;;;;;;;27.13;43.62;98691.09;5042821;28;20315;-88
2023/09/04 10:12:30;;;;;;;;;;;;;;;27.09;43.88;98687.25;5027691;28;20407;-89
2023/09/04 10:14:57;;;;;;;;;;;;;;;27.05;44.02;98689.53;5045575;28;19913;-90
2023/09/04 10:17:35;;;;;;;;;;;;;;;26.97;43.91;98703.25;5043751;28;19963;-88
2023/09/04 10:20:01;;;;;;;;;;;;;;;26.92;43.63;98696.94;5041877;28;19936;-89
2023/09/04 10:22:28;;;;;;;;;;;;;;;26.89;43.38;98692.84;5045387;28;19920;-89
2023/09/04 10:25:06;;;;;;;;;;;;;;;26.88;43.31;98692.03;5042283;28;19913;-89
2023/09/04 10:27:32;;;;;;;;;;;;;;;26.90;43.28;98692.63;5024910;28;19913;-89
2023/09/04 10:30:01;;;;;;;;;;;;;;;26.90;43.63;98687.25;5045302;28;19913;-91
2023/09/04 10:32:26;;;;;;;;;;;;;;;26.95;43.35;98691.13;5028023;28;19913;-89
2023/09/04 10:34:51;;;;;;;;;;;;;;;27.00;43.18;98680.56;5042354;28;19923;-90
2023/09/04 10:37:16;;;;;;;;;;;;;;;27.08;43.06;98686.41;5041124;28;19916;-90
2023/09/04 10:39:42;;;;;;;;;;;;;;;27.16;42.84;98687.97;5042760;28;20362;-90
2023/09/04 10:42:07;;;;;;;;;;;;;;;27.29;42.50;98688.84;5044773;28;19920;-91
2023/09/04 10:44:49;;;;;;;;;;;;;;;27.47;42.16;98682.63;5027605;28;19917;-92
2023/09/04 10:47:14;;;;;;;;;;;;;;;27.64;41.81;98682.81;5043345;28;19917;-89
2023/09/04 10:49:42;;;;;;;;;;;;;;;27.78;41.46;98677.03;5046301;28;19919;-90
2023/09/04 10:52:07;;;;;;;;;;;;;;;27.82;41.72;98677.38;5049175;28;19912;-91
2023/09/04 10:54:32;;;;;;;;;;;;;;;27.93;41.47;98679.25;5028283;28;19924;-89
2023/09/04 10:56:59;;;;;;;;;;;;;;;28.12;41.07;98666.56;5028728;28;19990;-91
2023/09/04 10:59:25;;;;;;;;;;;;;;;28.36;40.53;98669.25;5032088;28;20442;-90
2023/09/04 11:01:50;;;;;;;;;;;;;;;28.56;40.36;98671.56;5029808;28;19913;-90
2023/09/04 11:04:32;;;;;;;;;;;;;;;28.79;40.02;98651.91;5031888;28;19996;-89
2023/09/04 11:07:15;;;;;;;;;;;;;;;29.05;39.60;98665.88;5048416;28;19913;-92
2023/09/04 11:09:41;;;;;;;;;;;;;;;29.26;39.33;98672.47;5046605;28;19913;-91
2023/09/04 11:12:10;;;;;;;;;;;;;;;29.48;38.94;98679.84;5045157;28;20285;-90
2023/09/04 11:14:35;;;;;;;;;;;;;;;29.58;38.09;98675.44;5044567;28;20299;-91
2023/09/04 11:17:02;;;;;;;;;;;;;;;29.62;37.47;98665.03;5045652;28;19913;-90
2023/09/04 11:19:27;;;;;;;;;;;;;;;29.74;37.06;98671.13;5029162;28;19936;-91
2023/09/04 11:21:53;;;;;;;;;;;;;;;29.80;37.17;98674.78;5027038;28;20368;-92
2023/09/04 11:24:19;;;;;;;;;;;;;;;29.86;36.56;98675.69;5027535;28;19935;-90
2023/09/04 11:26:44;;;;;;;;;;;;;;;29.94;36.09;98680.66;5042955;28;19913;-89
2023/09/04 11:29:11;;;;;;;;;;;;;;;29.97;35.69;98666.72;5029577;28;19920;-89
2023/09/04 11:31:36;;;;;;;;;;;;;;;30.03;35.72;98675.66;5048489;28;19949;-88
2023/09/04 11:34:02;;;;;;;;;;;;;;;30.14;35.45;98672.06;5010049;28;20368;-91
2023/09/04 11:36:27;;;;;;;;;;;;;;;30.15;35.12;98671.00;5043566;28;19917;-90
2023/09/04 11:39:03;;;;;;;;;;;;;;;30.07;35.25;98669.53;5049878;28;19963;-90
2023/09/04 11:41:28;;;;;;;;;;;;;;;29.97;34.90;98677.47;5044338;28;19924;-90
2023/09/04 11:43:54;;;;;;;;;;;;;;;29.88;35.42;98673.56;5046721;28;19977;-90
2023/09/04 11:46:19;;;;;;;;;;;;;;;29.78;34.90;98666.91;5026867;28;19913;-90
2023/09/04 11:48:44;;;;;;;;;;;;;;;29.77;35.12;98669.84;5043865;28;19897;-90
2023/09/04 11:51:10;;;;;;;;;;;;;;;29.76;34.79;98665.50;5026108;28;20295;-89
2023/09/04 11:53:37;;;;;;;;;;;;;;;29.83;34.63;98665.41;5041937;28;19913;-89
2023/09/04 11:56:03;;;;;;;;;;;;;;;29.84;34.56;98664.31;5040745;28;19945;-92
2023/09/04 11:58:28;;;;;;;;;;;;;;;29.90;34.28;98658.81;5040992;28;19920;-92
2023/09/04 12:00:53;;;;;;;;;;;;;;;29.88;34.23;98657.41;5040245;28;19912;-89
2023/09/04 12:03:19;;;;;;;;;;;;;;;29.88;34.44;98657.41;5040675;28;19919;-89
2023/09/04 12:05:44;;;;;;;;;;;;;;;29.93;34.04;98652.09;5040990;28;19913;-89
2023/09/04 12:08:09;;;;;;;;;;;;;;;30.03;33.82;98648.75;5043089;28;19913;-89
2023/09/04 12:10:37;;;;;;;;;;;;;;;29.93;34.34;98644.84;5042845;28;19912;-91
2023/09/04 12:13:02;;;;;;;;;;;;;;;29.89;34.31;98637.53;5045118;28;19913;-89
2023/09/04 12:15:30;;;;;;;;;;;;;;;29.86;33.93;98633.44;5040866;28;19955;-91
2023/09/04 12:17:57;;;;;;;;;;;;;;;29.84;34.01;98629.34;5041765;28;19913;-91
2023/09/04 12:20:22;;;;;;;;;;;;;;;29.86;34.32;98627.25;5044262;28;20281;-91
2023/09/04 12:22:54;;;;;;;;;;;;;;;29.84;34.25;98634.72;5042251;28;19972;-90
2023/09/04 12:25:19;;;;;;;;;;;;;;;29.83;34.00;98622.38;5024855;28;19913;-89
2023/09/04 12:27:44;;;;;;;;;;;;;;;29.77;34.21;98608.78;5029255;28;19920;-88
2023/09/04 12:30:10;;;;;;;;;;;;;;;29.73;34.38;98613.03;5048967;28;19913;-90
2023/09/04 12:32:36;;;;;;;;;;;;;;;29.73;34.11;98613.03;5054229;28;19923;-89
2023/09/04 12:35:04;;;;;;;;;;;;;;;29.65;33.95;98607.25;5053996;28;19924;-91
2023/09/04 12:37:30;;;;;;;;;;;;;;;29.54;34.39;98614.31;5035561;28;19917;-90
2023/09/04 12:39:55;;;;;;;;;;;;;;;29.50;33.96;98614.00;5051379;28;19913;-90